Time;durP1;ratioP1;P1;durP2;ratioP2;P2;SDS_P1;SDS_P2;PMS_P1;PMS_P2;Temp;Humidity;BMP_temperature;BMP_pressure;BME280_temperature;BME280_humidity;BME280_pressure;Samples;Min_cycle;Max_cycle;Signal;HPM_P1;HPM_P2
2022/09/11 00:29:43;;;;;;;5.8;3.6;;;;;;;;;;;;;-76
2022/09/11 00:59:49;;;;;;;4.6;3;;;;;;;;;;;;;-76
2022/09/11 01:29:49;;;;;;;7.2;3.4;;;;;;;;;;;;;-78
2022/09/11 01:59:56;;;;;;;4;2.9;;;;;;;;;;;;;-77
2022/09/11 02:29:52;;;;;;;3.3;2.2;;;;;;;;;;;;;-75
2022/09/11 02:59:55;;;;;;;3;2;;;;;;;;;;;;;-74
2022/09/11 03:29:55;;;;;;;2.2;1.6;;;;;;;;;;;;;-76
2022/09/11 03:59:56;;;;;;;2.8;1.8;;;;;;;;;;;;;-75
2022/09/11 04:29:57;;;;;;;3.4;1.8;;;;;;;;;;;;;-75
2022/09/11 04:59:58;;;;;;;2.8;1.8;;;;;;;;;;;;;-75
2022/09/11 05:30:01;;;;;;;2.4;1.6;;;;;;;;;;;;;-76
2022/09/11 06:00:02;;;;;;;2.2;1.4;;;;;;;;;;;;;-76
2022/09/11 06:30:03;;;;;;;2.1;1.2;;;;;;;;;;;;;-75
2022/09/11 07:00:06;;;;;;;1.8;1;;;;;;;;;;;;;-75
2022/09/11 07:30:07;;;;;;;2.1;1.2;;;;;;;;;;;;;-76
2022/09/11 08:00:11;;;;;;;2.2;1.3;;;;;;;;;;;;;-76
2022/09/11 08:30:14;;;;;;;2.9;1.4;;;;;;;;;;;;;-77
2022/09/11 09:00:19;;;;;;;2.7;1.2;;;;;;;;;;;;;-77
2022/09/11 09:30:22;;;;;;;3;1.4;;;;;;;;;;;;;-79
2022/09/11 10:00:21;;;;;;;2.8;1.7;;;;;;;;;;;;;-79
2022/09/11 10:30:39;;;;;;;2.5;1.6;;;;;;;;;;;;;-78
2022/09/11 11:00:30;;;;;;;3.5;1.8;;;;;;;;;;;;;-76
2022/09/11 11:30:34;;;;;;;4.3;2;;;;;;;;;;;;;-78
2022/09/11 12:00:41;;;;;;;3.7;1.5;;;;;;;;;;;;;-79
2022/09/11 12:30:58;;;;;;;2;1.2;;;;;;;;;;;;;-76
2022/09/11 13:00:47;;;;;;;2.5;1.4;;;;;;;;;;;;;-77
2022/09/11 13:30:59;;;;;;;2.2;1.3;;;;;;;;;;;;;-78
2022/09/11 14:00:55;;;;;;;2;1.2;;;;;;;;;;;;;-78
2022/09/11 14:31:12;;;;;;;2.6;1.3;;;;;;;;;;;;;-77
2022/09/11 15:01:05;;;;;;;2.1;1.3;;;;;;;;;;;;;-79
2022/09/11 15:31:11;;;;;;;1.9;1.1;;;;;;;;;;;;;-77
2022/09/11 16:01:18;;;;;;;1.6;1.1;;;;;;;;;;;;;-78
2022/09/11 16:31:19;;;;;;;1.9;1.3;;;;;;;;;;;;;-77
2022/09/11 17:01:24;;;;;;;2.1;1.3;;;;;;;;;;;;;-76
2022/09/11 17:31:27;;;;;;;3.2;1.5;;;;;;;;;;;;;-78
2022/09/11 18:01:32;;;;;;;2.5;1.6;;;;;;;;;;;;;-78
2022/09/11 18:31:39;;;;;;;3.1;1.6;;;;;;;;;;;;;-77
2022/09/11 19:01:38;;;;;;;4;2.1;;;;;;;;;;;;;-75
2022/09/11 19:31:41;;;;;;;4;2.5;;;;;;;;;;;;;-75
2022/09/11 20:01:43;;;;;;;5.3;2.6;;;;;;;;;;;;;-77
2022/09/11 20:31:49;;;;;;;4.1;2.6;;;;;;;;;;;;;-75
2022/09/11 21:01:49;;;;;;;5.1;2.9;;;;;;;;;;;;;-78
2022/09/11 21:31:51;;;;;;;5.3;3.2;;;;;;;;;;;;;-76
2022/09/11 22:01:53;;;;;;;5.8;3.2;;;;;;;;;;;;;-76
2022/09/11 22:31:55;;;;;;;6;2.9;;;;;;;;;;;;;-75
2022/09/11 23:01:58;;;;;;;4.4;2.6;;;;;;;;;;;;;-75
2022/09/11 23:32:02;;;;;;;4.9;3.2;;;;;;;;;;;;;-77
